CYIK

Ivujivik Airport

Ivujivik, Quebec, Canada
METAR CYIK 162200Z 05015KT 15SM -SN DRSN FEW010 BKN055 OVC060 M08/M11 A2941 RMK ST1SC6SC2 ST TR SN CVR ONE LOOSE LAST STFD OBS/NEXT 171300UTC SLP966
Observed Flight Rules
Dec-16 @ 22:00 UTC (an hour ago) Visual Flight Rules
Wind Visibility Clouds Conditions
50° at 15 knots 15 miles
  • Few at 1,000' AGL
  • Broken at 5,500' AGL
  • Overcast at 6,000' AGL
  • Light Snow
  • Low drifting
  • Snow
Temperatures Readings
Current -8°C / 18°F
Dewpoint -11°C / 12°F
Humidity 79%
Altimeter 29.41" Hg
Pressure 996.6 hPa
Elevation 42
METAR CYIK 162200Z 05015KT 15SM -SN DRSN FEW010 BKN055 OVC060 M08/M11 A2941 RMK ST1SC6SC2 ST TR SN CVR ONE LOOSE LAST STFD OBS/NEXT 171300UTC SLP966
Observed Flight Rules
Dec-16 @ 22:00 UTC
(an hour ago)
VFR
Wind Visibility
50° at 15 knots 15 miles
Clouds
  • Few at 1,000' AGL
  • Broken at 5,500' AGL
  • Overcast at 6,000' AGL
Conditions
  • Light Snow
  • Low drifting
  • Snow
Temperature Dewpoint
-8°C / 18°F -11°C / 12°F
Humidity Altimeter Pressure
79% 29.41" Hg 996.6 hPa